Time;durP1;ratioP1;P1;durP2;ratioP2;P2;SDS_P1;SDS_P2;PMS_P1;PMS_P2;Temp;Humidity;BMP_temperature;BMP_pressure;BME280_temperature;BME280_humidity;BME280_pressure;Samples;Min_cycle;Max_cycle;Signal;HPM_P1;HPM_P2
2021/04/20 00:00:16;;;;;;;3.85;3.45;;;;;;;10.57;62.65;101228.03;662325;29;44541;-62
2021/04/20 00:00:37;;;;;;;5.75;3.88;;;;;;;10.57;62.79;101231.56;661999;29;69475;-62
2021/04/20 00:00:58;;;;;;;4.63;3.53;;;;;;;10.56;62.75;101229.84;662881;29;6474;-62
2021/04/20 00:01:19;;;;;;;3.97;3.50;;;;;;;10.55;63.01;101230.00;662249;29;44508;-59
2021/04/20 00:01:40;;;;;;;4.00;3.60;;;;;;;10.52;62.88;101231.22;659871;29;22385;-62
2021/04/20 00:02:02;;;;;;;4.50;3.60;;;;;;;10.49;63.23;101223.44;660505;29;22315;-61
2021/04/20 00:02:23;;;;;;;3.58;3.28;;;;;;;10.49;62.91;101228.84;660648;29;22393;-62
2021/04/20 00:02:44;;;;;;;3.85;3.47;;;;;;;10.48;63.14;101227.13;660402;29;21538;-61
2021/04/20 00:03:06;;;;;;;3.92;3.53;;;;;;;-146.32;100.00;63746.28;659736;29;46557;-61
2021/04/20 00:03:27;;;;;;;4.03;3.50;;;;;;;-146.32;100.00;63746.28;661151;29;22486;-62
2021/04/20 00:03:48;;;;;;;4.13;3.50;;;;;;;-146.32;100.00;63746.28;663294;29;22395;-62
2021/04/20 00:04:09;;;;;;;4.50;3.60;;;;;;;-146.32;100.00;63746.28;662802;29;21582;-62
2021/04/20 00:04:31;;;;;;;4.28;3.60;;;;;;;-146.32;100.00;63746.28;662624;29;46401;-62
2021/04/20 00:04:52;;;;;;;4.35;3.40;;;;;;;-146.32;100.00;63746.28;663278;29;22488;-61
2021/04/20 00:05:15;;;;;;;4.93;3.47;;;;;;;-146.32;100.00;63746.28;662999;29;23420;-62
2021/04/20 00:05:36;;;;;;;5.32;3.80;;;;;;;-146.32;100.00;63746.28;661066;29;92072;-62
2021/04/20 00:05:58;;;;;;;5.22;3.67;;;;;;;-146.32;100.00;63746.28;663587;29;21513;-62
2021/04/20 00:06:20;;;;;;;3.85;3.50;;;;;;;-146.32;100.00;63746.28;663065;29;22408;-62
2021/04/20 00:06:41;;;;;;;3.88;3.50;;;;;;;-146.32;100.00;63746.28;661984;29;44357;-62
2021/04/20 00:07:02;;;;;;;3.90;3.50;;;;;;;-146.32;100.00;63746.28;662506;29;46369;-60
2021/04/20 00:07:24;;;;;;;4.22;3.47;;;;;;;-146.32;100.00;63746.28;663211;29;23205;-62
2021/04/20 00:07:46;;;;;;;5.40;3.72;;;;;;;-146.32;100.00;63746.28;663485;29;23506;-62
2021/04/20 00:08:07;;;;;;;5.07;3.67;;;;;;;-146.32;100.00;63746.28;662415;29;46260;-62
2021/04/20 00:08:28;;;;;;;4.90;3.95;;;;;;;-146.32;100.00;63746.28;663357;29;22426;-61
2021/04/20 00:08:50;;;;;;;4.05;3.38;;;;;;;-146.32;100.00;63746.28;663180;29;22399;-62
2021/04/20 00:09:11;;;;;;;4.47;3.50;;;;;;;-146.32;100.00;63746.28;662180;29;46345;-62
2021/04/20 00:09:32;;;;;;;4.43;3.97;;;;;;;-146.32;100.00;63746.28;661347;29;31769;-63
2021/04/20 00:09:53;;;;;;;4.72;3.95;;;;;;;-146.32;100.00;63746.28;663218;29;22026;-63
2021/04/20 00:10:16;;;;;;;6.75;3.90;;;;;;;-146.32;100.00;63746.28;663322;29;23275;-62
2021/04/20 00:10:37;;;;;;;4.78;3.60;;;;;;;-146.32;100.00;63746.28;662287;29;42285;-62
2021/04/20 00:10:59;;;;;;;7.70;4.00;;;;;;;-146.32;100.00;63746.28;663051;29;18113;-63
2021/04/20 00:11:20;;;;;;;5.38;3.60;;;;;;;-146.32;100.00;63746.28;663418;29;5429;-61
2021/04/20 00:11:41;;;;;;;4.75;3.72;;;;;;;-146.32;100.00;63746.28;662822;29;22474;-63
2021/04/20 00:12:03;;;;;;;8.18;4.20;;;;;;;-146.32;100.00;63746.28;662621;29;24610;-62
2021/04/20 00:12:24;;;;;;;5.78;4.07;;;;;;;-146.32;100.00;63746.28;662481;29;45149;-63
2021/04/20 00:12:45;;;;;;;4.13;3.63;;;;;;;-146.32;100.00;63746.28;663124;29;22315;-63
2021/04/20 00:13:07;;;;;;;5.20;4.00;;;;;;;-146.32;100.00;63746.28;664120;29;933;-63
2021/04/20 00:13:29;;;;;;;5.65;3.80;;;;;;;-146.32;100.00;63746.28;663585;29;892;-62
2021/04/20 00:13:51;;;;;;;5.15;3.60;;;;;;;-146.32;100.00;63746.28;662058;29;45078;-62
2021/04/20 00:14:13;;;;;;;7.10;3.78;;;;;;;-146.32;100.00;63746.28;663526;29;7116;-63
2021/04/20 00:14:34;;;;;;;5.85;3.88;;;;;;;-146.32;100.00;63746.28;662797;29;32233;-62
2021/04/20 00:14:56;;;;;;;5.50;4.15;;;;;;;-146.32;100.00;63746.28;663105;29;22496;-61
2021/04/20 00:15:19;;;;;;;5.05;3.53;;;;;;;-146.32;100.00;63746.28;662849;29;22838;-63
2021/04/20 00:15:40;;;;;;;4.07;3.45;;;;;;;-146.32;100.00;63746.28;658256;29;87986;-63
2021/04/20 00:16:02;;;;;;;3.80;3.50;;;;;;;-146.32;100.00;63746.28;660677;29;13700;-63
2021/04/20 00:16:24;;;;;;;3.95;3.58;;;;;;;-146.32;100.00;63746.28;659926;29;22535;-63
2021/04/20 00:16:45;;;;;;;4.93;3.40;;;;;;;-146.32;100.00;63746.28;659902;29;44458;-63
2021/04/20 00:17:06;;;;;;;6.85;3.95;;;;;;;-146.32;100.00;63746.28;661124;29;14446;-64
2021/04/20 00:17:27;;;;;;;3.90;3.50;;;;;;;-146.32;100.00;63746.28;661816;29;5578;-63
2021/04/20 00:17:50;;;;;;;4.32;3.58;;;;;;;-146.32;100.00;63746.28;662891;29;34268;-63
2021/04/20 00:18:11;;;;;;;5.25;3.88;;;;;;;-146.32;100.00;63746.28;662491;29;41473;-63
2021/04/20 00:18:32;;;;;;;4.60;3.95;;;;;;;-146.32;100.00;63746.28;664006;29;921;-63
2021/04/20 00:18:53;;;;;;;4.07;3.67;;;;;;;-146.32;100.00;63746.28;662893;29;18828;-63
2021/04/20 00:19:15;;;;;;;4.75;3.78;;;;;;;-146.32;100.00;63746.28;663168;29;23539;-61
2021/04/20 00:19:36;;;;;;;4.07;3.65;;;;;;;-146.32;100.00;63746.28;661915;29;46298;-62
2021/04/20 00:19:57;;;;;;;5.03;3.53;;;;;;;-146.32;100.00;63746.28;663227;29;21923;-63
2021/04/20 00:20:18;;;;;;;4.25;3.78;;;;;;;-146.32;100.00;63746.28;662949;29;22081;-63
2021/04/20 00:20:40;;;;;;;4.63;3.78;;;;;;;-146.32;100.00;63746.28;663411;29;20160;-61
2021/04/20 00:21:01;;;;;;;3.92;3.50;;;;;;;-146.32;100.00;63746.28;662542;29;45667;-62
2021/04/20 00:21:22;;;;;;;4.60;3.30;;;;;;;-146.32;100.00;63746.28;663668;29;11482;-63
2021/04/20 00:21:44;;;;;;;4.93;3.45;;;;;;;-146.32;100.00;63746.28;663884;29;891;-61
2021/04/20 00:22:06;;;;;;;5.22;3.70;;;;;;;-146.32;100.00;63746.28;663053;29;1103;-61
2021/04/20 00:22:27;;;;;;;4.93;4.13;;;;;;;-146.32;100.00;63746.28;664324;29;1366;-62
2021/04/20 00:22:57;;;;;;;4.80;3.50;;;;;;;-146.32;100.00;63746.28;659418;29;61479;-61
2021/04/20 00:23:18;;;;;;;5.93;3.42;;;;;;;-146.32;100.00;63746.28;660368;29;33838;-62
2021/04/20 00:23:39;;;;;;;4.95;3.60;;;;;;;-146.32;100.00;63746.28;660961;29;22178;-61
2021/04/20 00:24:00;;;;;;;4.30;3.90;;;;;;;-146.32;100.00;63746.28;661098;29;10804;-61
2021/04/20 00:24:21;;;;;;;4.07;3.78;;;;;;;-146.32;100.00;63746.28;660642;29;22440;-61
2021/04/20 00:24:42;;;;;;;4.75;3.67;;;;;;;-146.32;100.00;63746.28;660238;29;46574;-61
2021/04/20 00:25:05;;;;;;;5.43;3.95;;;;;;;-146.32;100.00;63746.28;661037;29;23153;-62
2021/04/20 00:25:26;;;;;;;5.70;4.10;;;;;;;-146.32;100.00;63746.28;661425;29;1096;-60
2021/04/20 00:25:47;;;;;;;4.97;3.90;;;;;;;-146.32;100.00;63746.28;660046;29;45283;-62
2021/04/20 00:26:08;;;;;;;4.32;3.92;;;;;;;-146.32;100.00;63746.28;660550;29;23382;-62
2021/04/20 00:26:30;;;;;;;4.88;3.67;;;;;;;-146.32;100.00;63746.28;663078;29;22168;-62
2021/04/20 00:26:51;;;;;;;4.40;3.55;;;;;;;-146.32;100.00;63746.28;663062;29;24026;-62
2021/04/20 00:27:12;;;;;;;3.90;3.60;;;;;;;-146.32;100.00;63746.28;663109;29;23532;-62
2021/04/20 00:27:33;;;;;;;4.00;3.70;;;;;;;-146.32;100.00;63746.28;663214;29;23414;-62
2021/04/20 00:27:55;;;;;;;4.03;3.63;;;;;;;-146.32;100.00;63746.28;663341;29;23076;-60
2021/04/20 00:28:21;;;;;;;4.15;3.75;;;;;;;-146.32;100.00;63746.28;661915;29;45850;-62
2021/04/20 00:28:42;;;;;;;3.95;3.50;;;;;;;-146.32;100.00;63746.28;656253;29;160959;-60
2021/04/20 00:29:04;;;;;;;4.07;3.50;;;;;;;-146.32;100.00;63746.28;660102;29;45870;-62
2021/04/20 00:29:27;;;;;;;3.85;3.03;;;;;;;-146.32;100.00;63746.28;659632;29;46403;-60
2021/04/20 00:29:48;;;;;;;3.80;3.45;;;;;;;-146.32;100.00;63746.28;660768;29;68907;-61
2021/04/20 00:30:10;;;;;;;3.95;3.50;;;;;;;-146.32;100.00;63746.28;663120;29;22421;-62
2021/04/20 00:30:32;;;;;;;4.32;3.95;;;;;;;-146.32;100.00;63746.28;662605;29;45125;-62
2021/04/20 00:30:54;;;;;;;5.00;4.05;;;;;;;-146.32;100.00;63746.28;662466;29;44366;-62
2021/04/20 00:31:15;;;;;;;5.22;3.70;;;;;;;-146.32;100.00;63746.28;662252;29;44206;-62
2021/04/20 00:31:36;;;;;;;4.82;3.53;;;;;;;-146.32;100.00;63746.28;662501;29;22567;-62
2021/04/20 00:31:57;;;;;;;3.83;3.42;;;;;;;-146.32;100.00;63746.28;661038;29;23481;-62
2021/04/20 00:32:19;;;;;;;3.60;3.30;;;;;;;-146.32;100.00;63746.28;660848;29;22239;-62
2021/04/20 00:32:41;;;;;;;4.15;3.67;;;;;;;-146.32;100.00;63746.28;660063;29;46386;-61
2021/04/20 00:33:02;;;;;;;4.30;3.60;;;;;;;-146.32;100.00;63746.28;661131;29;36419;-62
2021/04/20 00:33:23;;;;;;;3.83;3.42;;;;;;;-146.32;100.00;63746.28;660611;29;22415;-62
2021/04/20 00:33:45;;;;;;;4.72;3.65;;;;;;;-146.32;100.00;63746.28;662554;29;22324;-61
2021/04/20 00:34:06;;;;;;;3.90;3.50;;;;;;;-146.32;100.00;63746.28;662242;29;44901;-61
2021/04/20 00:34:27;;;;;;;4.25;3.38;;;;;;;-146.32;100.00;63746.28;662459;29;22395;-60
2021/04/20 00:34:48;;;;;;;4.03;3.60;;;;;;;-146.32;100.00;63746.28;663125;29;21515;-62
2021/04/20 00:35:10;;;;;;;4.43;3.92;;;;;;;-146.32;100.00;63746.28;663364;29;21487;-61
2021/04/20 00:35:32;;;;;;;4.32;3.70;;;;;;;-146.32;100.00;63746.28;661977;29;47158;-61
2021/04/20 00:35:53;;;;;;;3.83;3.40;;;;;;;-146.32;100.00;63746.28;660638;29;46294;-62
2021/04/20 00:36:14;;;;;;;4.15;3.70;;;;;;;-146.32;100.00;63746.28;661121;29;22532;-62
2021/04/20 00:36:35;;;;;;;5.13;4.00;;;;;;;-146.32;100.00;63746.28;661488;29;23531;-62
2021/04/20 00:36:56;;;;;;;5.25;3.92;;;;;;;-146.32;100.00;63746.28;660844;29;21279;-62
2021/04/20 00:37:18;;;;;;;4.18;3.83;;;;;;;-146.32;100.00;63746.28;661664;29;2958;-62
2021/04/20 00:37:40;;;;;;;5.68;4.05;;;;;;;-146.32;100.00;63746.28;658011;29;46691;-62
2021/04/20 00:38:01;;;;;;;6.35;4.00;;;;;;;-146.32;100.00;63746.28;657821;30;44353;-62
2021/04/20 00:38:22;;;;;;;6.00;3.70;;;;;;;-146.32;100.00;63746.28;659258;29;22403;-61
2021/04/20 00:38:44;;;;;;;6.30;4.10;;;;;;;-146.32;100.00;63746.28;661050;29;22425;-62
2021/04/20 00:39:05;;;;;;;6.82;4.20;;;;;;;-146.32;100.00;63746.28;661297;29;23435;-62
2021/04/20 00:39:26;;;;;;;5.43;4.20;;;;;;;-146.32;100.00;63746.28;660035;29;44476;-61
2021/04/20 00:39:47;;;;;;;5.30;4.07;;;;;;;-146.32;100.00;63746.28;661278;29;22414;-61
2021/04/20 00:40:10;;;;;;;5.60;4.25;;;;;;;-146.32;100.00;63746.28;660980;29;21526;-59
2021/04/20 00:40:32;;;;;;;4.32;3.75;;;;;;;-146.32;100.00;63746.28;659805;29;69342;-62
2021/04/20 00:40:53;;;;;;;5.38;4.07;;;;;;;-146.32;100.00;63746.28;661375;29;22355;-60
2021/04/20 00:41:15;;;;;;;6.22;4.13;;;;;;;-146.32;100.00;63746.28;661336;29;21530;-61
2021/04/20 00:41:36;;;;;;;6.28;4.18;;;;;;;-146.32;100.00;63746.28;659938;29;46369;-62
2021/04/20 00:42:02;;;;;;;4.50;3.92;;;;;;;-146.32;100.00;63746.28;661542;29;7551;-62
2021/04/20 00:42:23;;;;;;;4.20;3.78;;;;;;;-146.32;100.00;63746.28;657650;29;137209;-62
2021/04/20 00:42:45;;;;;;;7.93;4.07;;;;;;;-146.32;100.00;63746.28;661046;29;24401;-62
2021/04/20 00:43:07;;;;;;;7.68;4.20;;;;;;;-146.32;100.00;63746.28;661723;29;70266;-63
2021/04/20 00:43:33;;;;;;;4.68;4.00;;;;;;;-146.32;100.00;63746.28;663492;29;22302;-62
2021/04/20 00:43:54;;;;;;;4.55;4.00;;;;;;;-146.32;100.00;63746.28;659327;29;137704;-63
2021/04/20 00:44:15;;;;;;;4.60;4.13;;;;;;;-146.32;100.00;63746.28;662506;29;23520;-60
2021/04/20 00:44:37;;;;;;;5.72;4.05;;;;;;;-146.32;100.00;63746.28;662676;29;46315;-61
2021/04/20 00:44:58;;;;;;;5.22;3.80;;;;;;;-146.32;100.00;63746.28;662652;29;23521;-62
2021/04/20 00:45:21;;;;;;;4.47;4.05;;;;;;;-146.32;100.00;63746.28;660618;29;44125;-63
2021/04/20 00:45:43;;;;;;;4.85;3.70;;;;;;;-146.32;100.00;63746.28;660330;29;54330;-60
2021/04/20 00:46:08;;;;;;;6.22;3.72;;;;;;;-146.32;100.00;63746.28;660558;29;44405;-61
2021/04/20 00:46:30;;;;;;;4.07;3.50;;;;;;;-146.32;100.00;63746.28;658278;29;112456;-60
2021/04/20 00:46:51;;;;;;;3.78;3.47;;;;;;;-146.32;100.00;63746.28;660594;29;23592;-62
2021/04/20 00:47:12;;;;;;;5.53;4.32;;;;;;;-146.32;100.00;63746.28;660441;29;45309;-61
2021/04/20 00:47:34;;;;;;;5.47;4.32;;;;;;;-146.32;100.00;63746.28;661574;29;7393;-63
2021/04/20 00:47:55;;;;;;;4.43;3.83;;;;;;;-146.32;100.00;63746.28;661934;29;1708;-61
2021/04/20 00:48:17;;;;;;;5.35;4.00;;;;;;;-146.32;100.00;63746.28;660064;29;46370;-63
2021/04/20 00:48:38;;;;;;;5.20;3.90;;;;;;;-146.32;100.00;63746.28;660989;29;22028;-63
2021/04/20 00:48:59;;;;;;;5.40;4.10;;;;;;;-146.32;100.00;63746.28;659981;29;47140;-61
2021/04/20 00:49:20;;;;;;;5.10;3.90;;;;;;;-146.32;100.00;63746.28;661381;29;957;-62
2021/04/20 00:49:42;;;;;;;4.43;3.70;;;;;;;-146.32;100.00;63746.28;661307;29;21614;-63
2021/04/20 00:50:04;;;;;;;4.38;3.80;;;;;;;-146.32;100.00;63746.28;660530;29;22441;-60
2021/04/20 00:50:26;;;;;;;4.20;3.80;;;;;;;-146.32;100.00;63746.28;660455;29;46381;-60
2021/04/20 00:50:47;;;;;;;3.88;3.58;;;;;;;-146.32;100.00;63746.28;659176;29;67482;-64
2021/04/20 00:51:09;;;;;;;3.88;3.50;;;;;;;-146.32;100.00;63746.28;660431;29;22410;-62
2021/04/20 00:51:30;;;;;;;4.95;3.90;;;;;;;-146.32;100.00;63746.28;660125;29;45323;-61
2021/04/20 00:51:52;;;;;;;5.53;3.90;;;;;;;-146.32;100.00;63746.28;661290;29;21536;-63
2021/04/20 00:52:13;;;;;;;5.45;3.88;;;;;;;-146.32;100.00;63746.28;663262;29;23508;-59
2021/04/20 00:52:34;;;;;;;4.35;3.63;;;;;;;-146.32;100.00;63746.28;662816;29;46449;-58
2021/04/20 00:52:56;;;;;;;4.93;3.88;;;;;;;-146.32;100.00;63746.28;660993;29;21185;-63
2021/04/20 00:53:19;;;;;;;5.07;3.65;;;;;;;-146.32;100.00;63746.28;656744;30;67993;-60
2021/04/20 00:53:40;;;;;;;5.72;3.72;;;;;;;-146.32;100.00;63746.28;661022;29;21518;-63
2021/04/20 00:54:02;;;;;;;6.22;3.90;;;;;;;-146.32;100.00;63746.28;660338;29;44370;-63
2021/04/20 00:54:25;;;;;;;5.25;4.15;;;;;;;-146.32;100.00;63746.28;660279;29;45849;-60
2021/04/20 00:54:46;;;;;;;5.55;4.03;;;;;;;-146.32;100.00;63746.28;660480;29;67483;-63
2021/04/20 00:55:09;;;;;;;5.05;3.78;;;;;;;-146.32;100.00;63746.28;660989;29;22407;-60
2021/04/20 00:55:32;;;;;;;4.15;3.75;;;;;;;-146.32;100.00;63746.28;658725;29;92256;-61
2021/04/20 00:55:56;;;;;;;4.03;3.63;;;;;;;-146.32;100.00;63746.28;658937;29;92434;-63
2021/04/20 00:56:18;;;;;;;4.60;4.20;;;;;;;-146.32;100.00;63746.28;661173;29;22509;-62
2021/04/20 00:56:39;;;;;;;4.88;3.85;;;;;;;-146.32;100.00;63746.28;659425;29;65229;-62
2021/04/20 00:57:00;;;;;;;5.15;3.70;;;;;;;-146.32;100.00;63746.28;661764;29;13877;-62
2021/04/20 00:57:22;;;;;;;5.35;4.05;;;;;;;-146.32;100.00;63746.28;661152;29;23820;-60
2021/04/20 00:57:43;;;;;;;4.05;3.70;;;;;;;-146.32;100.00;63746.28;661342;29;23444;-62
2021/04/20 00:58:04;;;;;;;4.50;3.70;;;;;;;-146.32;100.00;63746.28;661784;29;961;-61
2021/04/20 00:58:25;;;;;;;5.70;3.92;;;;;;;-146.32;100.00;63746.28;661474;29;21513;-62
2021/04/20 00:58:47;;;;;;;4.80;3.90;;;;;;;-146.32;100.00;63746.28;661212;29;23776;-63
2021/04/20 00:59:08;;;;;;;4.25;3.72;;;;;;;-146.32;100.00;63746.28;660772;29;45049;-63
2021/04/20 00:59:29;;;;;;;5.15;3.88;;;;;;;-146.32;100.00;63746.28;660956;29;18101;-61
2021/04/20 00:59:51;;;;;;;4.97;3.92;;;;;;;-146.32;100.00;63746.28;663513;29;24100;-60
2021/04/20 01:00:13;;;;;;;4.22;3.75;;;;;;;-146.32;100.00;63746.28;660029;29;23218;-63
2021/04/20 01:00:38;;;;;;;5.15;3.72;;;;;;;-146.32;100.00;63746.28;658981;29;60715;-60
2021/04/20 01:01:00;;;;;;;4.13;3.78;;;;;;;-146.32;100.00;63746.28;659760;29;27610;-59
2021/04/20 01:01:21;;;;;;;5.13;4.05;;;;;;;-146.32;100.00;63746.28;659042;29;46313;-61
2021/04/20 01:01:43;;;;;;;6.15;4.13;;;;;;;-146.32;100.00;63746.28;659750;29;22055;-62
2021/04/20 01:02:04;;;;;;;5.57;4.30;;;;;;;-146.32;100.00;63746.28;660639;29;22207;-63
2021/04/20 01:02:26;;;;;;;5.57;4.20;;;;;;;-146.32;100.00;63746.28;661170;29;23412;-60
2021/04/20 01:02:47;;;;;;;5.28;3.70;;;;;;;-146.32;100.00;63746.28;660479;29;39617;-60
2021/04/20 01:03:09;;;;;;;5.60;3.85;;;;;;;-146.32;100.00;63746.28;661246;29;13149;-61
2021/04/20 01:03:30;;;;;;;6.00;3.90;;;;;;;-146.32;100.00;63746.28;661041;29;21542;-60
2021/04/20 01:03:52;;;;;;;6.00;3.67;;;;;;;-146.32;100.00;63746.28;660158;29;44383;-63
2021/04/20 01:04:18;;;;;;;6.57;4.00;;;;;;;-146.32;100.00;63746.28;660804;29;23483;-61
2021/04/20 01:04:39;;;;;;;4.95;3.75;;;;;;;-146.32;100.00;63746.28;657498;29;135113;-62
2021/04/20 01:05:00;;;;;;;5.03;3.70;;;;;;;-146.32;100.00;63746.28;661727;29;7744;-61
2021/04/20 01:05:24;;;;;;;3.97;3.58;;;;;;;-146.32;100.00;63746.28;663019;29;21518;-62
2021/04/20 01:05:46;;;;;;;5.18;3.90;;;;;;;-146.32;100.00;63746.28;660557;29;92188;-62
2021/04/20 01:06:08;;;;;;;4.22;3.63;;;;;;;-146.32;100.00;63746.28;662787;29;46350;-60
2021/04/20 01:06:29;;;;;;;3.72;3.15;;;;;;;-146.32;100.00;63746.28;663787;29;21507;-61
2021/04/20 01:06:51;;;;;;;4.88;3.45;;;;;;;-146.32;100.00;63746.28;663520;29;21341;-63
2021/04/20 01:07:12;;;;;;;4.15;3.80;;;;;;;-146.32;100.00;63746.28;661857;29;46373;-63
2021/04/20 01:07:33;;;;;;;4.03;3.70;;;;;;;-146.32;100.00;63746.28;661545;29;16209;-63
2021/04/20 01:07:57;;;;;;;4.50;3.53;;;;;;;-146.32;100.00;63746.28;663131;29;22493;-64
2021/04/20 01:08:21;;;;;;;4.28;3.85;;;;;;;-146.32;100.00;63746.28;660256;29;115159;-61
2021/04/20 01:08:42;;;;;;;4.53;3.65;;;;;;;-146.32;100.00;63746.28;661795;29;69461;-62
2021/04/20 01:09:04;;;;;;;4.13;3.67;;;;;;;-146.32;100.00;63746.28;662962;29;23394;-61
2021/04/20 01:09:25;;;;;;;4.28;3.88;;;;;;;-146.32;100.00;63746.28;662177;29;46360;-64
2021/04/20 01:09:47;;;;;;;4.78;3.95;;;;;;;-146.32;100.00;63746.28;662470;29;15503;-63
2021/04/20 01:10:10;;;;;;;4.80;4.05;;;;;;;-146.32;100.00;63746.28;659725;29;69444;-63
2021/04/20 01:10:33;;;;;;;4.25;3.72;;;;;;;-146.32;100.00;63746.28;659741;29;69601;-62
2021/04/20 01:10:56;;;;;;;5.20;3.97;;;;;;;-146.32;100.00;63746.28;660354;29;44416;-62
2021/04/20 01:11:17;;;;;;;4.03;3.63;;;;;;;-146.32;100.00;63746.28;659803;29;68014;-62
2021/04/20 01:11:41;;;;;;;5.55;3.88;;;;;;;-146.32;100.00;63746.28;661248;29;22398;-62
2021/04/20 01:12:03;;;;;;;5.00;3.88;;;;;;;-146.32;100.00;63746.28;659161;29;80301;-63
2021/04/20 01:12:24;;;;;;;4.35;3.75;;;;;;;-146.32;100.00;63746.28;662859;29;46488;-60
2021/04/20 01:12:45;;;;;;;5.45;3.72;;;;;;;-146.32;100.00;63746.28;663267;29;21507;-63
2021/04/20 01:13:07;;;;;;;4.07;3.60;;;;;;;-146.32;100.00;63746.28;663117;29;23514;-60
2021/04/20 01:13:30;;;;;;;3.80;3.50;;;;;;;-146.32;100.00;63746.28;662246;29;46370;-60
2021/04/20 01:13:51;;;;;;;4.43;4.00;;;;;;;-146.32;100.00;63746.28;659154;29;58146;-62
2021/04/20 01:14:13;;;;;;;5.95;3.78;;;;;;;-146.32;100.00;63746.28;660599;29;22417;-61
2021/04/20 01:14:35;;;;;;;4.18;3.65;;;;;;;-146.32;100.00;63746.28;659334;29;66674;-62
2021/04/20 01:14:57;;;;;;;4.22;3.80;;;;;;;-146.32;100.00;63746.28;660245;29;46285;-63
2021/04/20 01:15:18;;;;;;;5.93;4.40;;;;;;;-146.32;100.00;63746.28;660446;29;46294;-61
2021/04/20 01:15:42;;;;;;;5.07;4.07;;;;;;;-146.32;100.00;63746.28;660967;29;23466;-61
2021/04/20 01:16:04;;;;;;;5.28;3.83;;;;;;;-146.32;100.00;63746.28;658497;29;92365;-62
2021/04/20 01:16:25;;;;;;;5.13;3.60;;;;;;;-146.32;100.00;63746.28;660465;29;45337;-62
2021/04/20 01:16:46;;;;;;;6.00;3.80;;;;;;;-146.32;100.00;63746.28;661827;29;9926;-63
2021/04/20 01:17:07;;;;;;;5.10;3.83;;;;;;;-146.32;100.00;63746.28;661471;29;21276;-60
2021/04/20 01:17:29;;;;;;;3.97;3.67;;;;;;;-146.32;100.00;63746.28;660549;29;43401;-60
2021/04/20 01:17:50;;;;;;;4.35;3.80;;;;;;;-146.32;100.00;63746.28;661879;29;5303;-61
2021/04/20 01:18:12;;;;;;;4.85;3.78;;;;;;;-146.32;100.00;63746.28;661145;29;23501;-60
2021/04/20 01:18:36;;;;;;;5.30;4.00;;;;;;;-146.32;100.00;63746.28;660259;29;45256;-61
2021/04/20 01:18:57;;;;;;;4.63;3.88;;;;;;;-146.32;100.00;63746.28;659141;29;78245;-63
2021/04/20 01:19:19;;;;;;;4.55;3.58;;;;;;;-146.32;100.00;63746.28;660772;29;23504;-63
2021/04/20 01:19:43;;;;;;;7.30;3.75;;;;;;;-146.32;100.00;63746.28;660119;29;45258;-63
2021/04/20 01:20:06;;;;;;;5.13;3.58;;;;;;;-146.32;100.00;63746.28;658319;29;92820;-60
2021/04/20 01:20:27;;;;;;;4.57;4.18;;;;;;;-146.32;100.00;63746.28;659696;29;67494;-62
2021/04/20 01:20:57;;;;;;;4.07;3.67;;;;;;;-146.32;100.00;63746.28;664001;29;1663;-62
2021/04/20 01:21:20;;;;;;;4.15;3.55;;;;;;;-146.32;100.00;63746.28;662194;29;61121;-62
2021/04/20 01:21:42;;;;;;;5.30;4.00;;;;;;;-146.32;100.00;63746.28;662727;29;43772;-61
2021/04/20 01:22:04;;;;;;;4.60;4.00;;;;;;;-146.32;100.00;63746.28;662719;29;39099;-61
2021/04/20 01:22:28;;;;;;;4.43;3.78;;;;;;;-146.32;100.00;63746.28;662607;29;45243;-63
2021/04/20 01:22:51;;;;;;;4.07;3.67;;;;;;;-146.32;100.00;63746.28;659270;29;87607;-63
2021/04/20 01:23:16;;;;;;;5.60;3.70;;;;;;;-146.32;100.00;63746.28;661455;29;67849;-62
2021/04/20 01:23:47;;;;;;;4.53;3.70;;;;;;;-146.32;100.00;63746.28;660506;29;107290;-63
2021/04/20 01:24:21;;;;;;;4.22;3.83;;;;;;;-146.32;100.00;63746.28;659695;29;138152;-61
2021/04/20 01:24:47;;;;;;;4.93;3.67;;;;;;;-146.32;100.00;63746.28;660239;29;80609;-61
2021/04/20 01:25:09;;;;;;;4.00;3.70;;;;;;;-146.32;100.00;63746.28;661172;29;40817;-60
2021/04/20 01:25:30;;;;;;;4.97;3.83;;;;;;;-146.32;100.00;63746.28;660303;29;46387;-59
2021/04/20 01:25:53;;;;;;;5.30;3.70;;;;;;;-146.32;100.00;63746.28;661015;29;22265;-63
2021/04/20 01:26:15;;;;;;;6.55;3.70;;;;;;;-146.32;100.00;63746.28;659738;29;68535;-63
2021/04/20 01:26:39;;;;;;;5.88;4.00;;;;;;;-146.32;100.00;63746.28;661596;29;46458;-63
2021/04/20 01:27:00;;;;;;;4.03;3.63;;;;;;;-146.32;100.00;63746.28;659640;29;78977;-61
2021/04/20 01:27:22;;;;;;;5.28;3.70;;;;;;;-146.32;100.00;63746.28;662050;29;22637;-63
2021/04/20 01:27:44;;;;;;;3.90;3.55;;;;;;;-146.32;100.00;63746.28;661292;29;44372;-63
2021/04/20 01:28:05;;;;;;;4.78;3.72;;;;;;;-146.32;100.00;63746.28;661491;29;46457;-60
2021/04/20 01:28:27;;;;;;;6.68;3.63;;;;;;;-146.32;100.00;63746.28;661900;29;23495;-62
2021/04/20 01:28:49;;;;;;;4.20;3.50;;;;;;;-146.32;100.00;63746.28;660102;29;44495;-63
2021/04/20 01:29:10;;;;;;;4.82;3.35;;;;;;;-146.32;100.00;63746.28;661514;29;9899;-61
2021/04/20 01:29:31;;;;;;;4.00;3.50;;;;;;;-146.32;100.00;63746.28;659886;29;43974;-63
2021/04/20 01:29:53;;;;;;;4.18;3.78;;;;;;;-146.32;100.00;63746.28;662720;29;8131;-60
2021/04/20 01:30:16;;;;;;;4.32;3.88;;;;;;;-146.32;100.00;63746.28;656430;30;45258;-60
2021/04/20 01:30:37;;;;;;;5.30;4.00;;;;;;;-146.32;100.00;63746.28;655950;30;69472;-59
2021/04/20 01:30:59;;;;;;;4.28;3.80;;;;;;;-146.32;100.00;63746.28;657408;30;23409;-62
2021/04/20 01:31:20;;;;;;;4.63;4.10;;;;;;;-146.32;100.00;63746.28;656588;30;46579;-63
2021/04/20 01:31:43;;;;;;;4.60;4.13;;;;;;;-146.32;100.00;63746.28;660817;29;4935;-64
2021/04/20 01:32:05;;;;;;;5.03;3.60;;;;;;;-146.32;100.00;63746.28;661036;29;45865;-62
2021/04/20 01:32:26;;;;;;;4.13;3.55;;;;;;;-146.32;100.00;63746.28;662008;29;68597;-63
2021/04/20 01:32:47;;;;;;;5.25;3.78;;;;;;;-146.32;100.00;63746.28;662906;29;22396;-62
2021/04/20 01:33:09;;;;;;;6.05;4.05;;;;;;;-146.32;100.00;63746.28;663425;29;24050;-60
2021/04/20 01:33:30;;;;;;;4.65;3.80;;;;;;;-146.32;100.00;63746.28;662035;29;45249;-62
2021/04/20 01:33:52;;;;;;;4.78;3.55;;;;;;;-146.32;100.00;63746.28;661314;29;22483;-62
2021/04/20 01:34:13;;;;;;;4.03;3.55;;;;;;;-146.32;100.00;63746.28;660836;29;22413;-60
2021/04/20 01:34:34;;;;;;;4.35;3.53;;;;;;;-146.32;100.00;63746.28;659829;29;46342;-62
2021/04/20 01:34:56;;;;;;;6.28;3.72;;;;;;;-146.32;100.00;63746.28;661162;29;23649;-63
2021/04/20 01:35:17;;;;;;;5.38;3.70;;;;;;;-146.32;100.00;63746.28;660575;29;47226;-62
2021/04/20 01:35:39;;;;;;;4.65;3.70;;;;;;;-146.32;100.00;63746.28;661222;29;22131;-62
2021/04/20 01:36:00;;;;;;;7.28;4.20;;;;;;;-146.32;100.00;63746.28;661274;29;21522;-63
2021/04/20 01:36:23;;;;;;;4.72;3.88;;;;;;;-146.32;100.00;63746.28;661414;29;23452;-62
2021/04/20 01:36:44;;;;;;;5.20;3.97;;;;;;;-146.32;100.00;63746.28;659769;29;62594;-61
2021/04/20 01:37:06;;;;;;;4.13;3.72;;;;;;;-146.32;100.00;63746.28;661356;29;22938;-62
2021/04/20 01:37:27;;;;;;;5.47;3.92;;;;;;;-146.32;100.00;63746.28;660730;29;46089;-62
2021/04/20 01:37:48;;;;;;;5.50;4.22;;;;;;;-146.32;100.00;63746.28;661148;29;24374;-60
2021/04/20 01:38:09;;;;;;;4.22;3.88;;;;;;;-146.32;100.00;63746.28;661228;29;23520;-62
2021/04/20 01:38:30;;;;;;;4.20;3.80;;;;;;;-146.32;100.00;63746.28;661455;29;23002;-59
2021/04/20 01:38:53;;;;;;;4.15;3.75;;;;;;;-146.32;100.00;63746.28;660692;29;36125;-62
2021/04/20 01:39:14;;;;;;;5.45;4.05;;;;;;;-146.32;100.00;63746.28;660381;29;46313;-63
2021/04/20 01:39:36;;;;;;;5.63;4.03;;;;;;;-146.32;100.00;63746.28;661319;29;8294;-61
2021/04/20 01:39:57;;;;;;;4.70;4.00;;;;;;;-146.32;100.00;63746.28;660615;29;46402;-59
2021/04/20 01:40:18;;;;;;;4.40;3.80;;;;;;;-146.32;100.00;63746.28;663525;29;22040;-60
2021/04/20 01:40:40;;;;;;;5.70;3.72;;;;;;;-146.32;100.00;63746.28;662567;29;41962;-63
2021/04/20 01:41:01;;;;;;;5.55;3.60;;;;;;;-146.32;100.00;63746.28;663959;29;981;-61